Etusivu
METAR-TAF:

METAR-TAF

Lentoasemat :

Port Columbuksen kansainvälinen lentoasema

Columbus, Ohio, Yhdysvallat

Leveyspiiri: 39-59-42N, Pituuspiiri: 082-52-35W, korkeus merenpinnasta: 248 m

Tämänhetkinen sää

Tämä raportti tehtiin 29 minuuttia sitten, kello 16.51 UTC
Tuuli 6 kn lounaasta
Lämpötila 4°C
Kosteus 38%
Ilmanpaine 1028 hPa
Näkyvyys: 16.1 km
selkeää

METAR: KCMH 221651Z 23006KT 10SM CLR 04/M09 A3037 RMK AO2 SLP293 T00441094

Aika: 12:20 (17:20 UTC)

Sääennuste

Tämä raportti tehtiin 6 tuntia ja 0 minuuttia sitten, kello 11.20 UTC
Ennuste voimassa 22. päivästä klo 12 UTC - 23. päivään klo 12 UTC
Tuuli 5 kn etelästä
Näkyvyys: 10 km
selkeää
From 22. päivästä klo 1600 UTC
Tuuli 12 kn lounaasta
Näkyvyys: 10 km
selkeää
From 23. päivästä klo 0000 UTC
Tuuli 4 kn etelästä
Näkyvyys: 10 km
Muutamia pilviä 20000 ft:n korkeudessa

TAF: KCMH 221120Z 2212/2312 18005KT P6SM SKC FM221600 22012KT P6SM SKC FM230000 18004KT P6SM FEW200

Säähavainnot ja -ennusteet yli 4000 lentoasemalta (METAR- ja TAF-raportit).

Käytössä olevat sääasemat on merkitty karttaan keltaisilla ja punaisilla pisteillä.

Aseta hiiri pisteen päälle nähdäksesi sääaseman nimen.

Klikkaa sitten nähdäksesi säähavainnot ja -ennusteet.

Kartan vaihtaminen: klikkaa mustalla rastilla varustettuja vihreitä pisteitä, niin voit zoomata sisään; viivalla varustettua vihreää pistettä, niin voit zoomata ulos tai vihreitä nuolia, niin pääset viereisille kartoille.


METAR-TAF: